Time;durP1;ratioP1;P1;durP2;ratioP2;P2;SDS_P1;SDS_P2;PMS_P1;PMS_P2;Temp;Humidity;BMP_temperature;BMP_pressure;BME280_temperature;BME280_humidity;BME280_pressure;Samples;Min_cycle;Max_cycle;Signal;HPM_P1;HPM_P2
2022/02/09 00:01:46;;;;;;;0.70;0.50;;;10.90;99.90;;;;;;5015221;28;20901;-72
2022/02/09 00:09:06;;;;;;;0.80;0.60;;;10.80;99.90;;;;;;5015046;28;20192;-73
2022/02/09 00:11:40;;;;;;;1.90;1.03;;;10.80;99.90;;;;;;5014988;28;20444;-71
2022/02/09 00:14:19;;;;;;;0.80;0.60;;;10.80;99.90;;;;;;5021993;28;20533;-71
2022/02/09 00:19:58;;;;;;;1.17;1.07;;;10.80;99.90;;;;;;5015201;28;21053;-71
2022/02/09 00:22:43;;;;;;;0.70;0.50;;;10.80;99.90;;;;;;5014421;28;20413;-71
2022/02/09 00:28:12;;;;;;;1.10;1.00;;;10.80;99.90;;;;;;5015299;28;20498;-71
2022/02/09 00:39:07;;;;;;;1.33;1.23;;;10.70;99.90;;;;;;5015145;28;20407;-71
2022/02/09 01:12:07;;;;;;;0.70;0.50;;;10.60;99.90;;;;;;5017430;28;20454;-70
2022/02/09 01:57:10;;;;;;;0.90;0.70;;;10.50;99.90;;;;;;5030080;28;20422;-71
2022/02/09 01:59:37;;;;;;;1.20;0.90;;;10.50;99.90;;;;;;5008899;28;20936;-71
2022/02/09 02:02:04;;;;;;;0.80;0.70;;;10.50;99.90;;;;;;5014101;28;20963;-71
2022/02/09 02:04:29;;;;;;;0.77;0.70;;;10.50;99.90;;;;;;5014068;28;20447;-71
2022/02/09 02:06:55;;;;;;;1.57;0.70;;;10.50;99.90;;;;;;5014319;28;20399;-71
2022/02/09 02:09:24;;;;;;;0.90;0.90;;;10.50;99.90;;;;;;5013913;28;20194;-71
2022/02/09 02:11:56;;;;;;;2.30;1.17;;;10.50;99.90;;;;;;5013457;28;20160;-71
2022/02/09 02:17:04;;;;;;;3.60;0.90;;;10.50;99.90;;;;;;4994130;28;20412;-71
2022/02/09 02:19:39;;;;;;;1.63;1.17;;;10.50;99.90;;;;;;4994492;28;20424;-71
2022/02/09 02:27:35;;;;;;;1.97;1.87;;;10.50;99.90;;;;;;5029597;28;20190;-71
2022/02/09 02:33:02;;;;;;;2.30;0.90;;;10.50;99.90;;;;;;5015294;28;20416;-71
2022/02/09 02:59:36;;;;;;;0.70;0.50;;;10.50;99.90;;;;;;5012057;28;20529;-71
2022/02/09 03:13:01;;;;;;;4.70;2.70;;;10.50;99.90;;;;;;5019486;28;20811;-70
2022/02/09 03:16:31;;;;;;;0.80;0.70;;;10.50;99.90;;;;;;5031732;28;20221;-71
2022/02/09 03:20:59;;;;;;;0.80;0.70;;;10.50;99.90;;;;;;5022048;28;20435;-70
2022/02/09 03:23:43;;;;;;;0.70;0.60;;;10.50;99.90;;;;;;5026108;28;20461;-71
2022/02/09 03:45:27;;;;;;;0.80;0.73;;;10.50;99.90;;;;;;5007244;28;20439;-71
2022/02/09 03:53:22;;;;;;;0.80;0.60;;;10.50;99.90;;;;;;5011873;28;20398;-71
2022/02/09 03:58:16;;;;;;;2.10;2.00;;;10.50;99.90;;;;;;5001546;28;20420;-70
2022/02/09 04:00:44;;;;;;;0.70;0.50;;;10.50;99.90;;;;;;5006145;28;20482;-71
2022/02/09 04:03:14;;;;;;;1.20;0.70;;;10.50;99.90;;;;;;5015226;28;20442;-71
2022/02/09 04:05:41;;;;;;;0.70;0.53;;;10.50;99.90;;;;;;5015402;28;20789;-71
2022/02/09 04:08:11;;;;;;;0.80;0.70;;;10.50;99.90;;;;;;5015391;28;20421;-70
2022/02/09 04:10:42;;;;;;;0.83;0.80;;;10.50;99.90;;;;;;5014958;28;20457;-70
2022/02/09 04:39:57;;;;;;;0.70;0.60;;;10.40;99.90;;;;;;5021409;28;20549;-70
2022/02/09 04:50:00;;;;;;;0.70;0.50;;;10.40;99.90;;;;;;5034185;28;20183;-71
2022/02/09 04:57:52;;;;;;;1.27;0.90;;;10.40;99.90;;;;;;5035693;28;20414;-71
2022/02/09 05:00:32;;;;;;;0.97;0.67;;;10.40;99.90;;;;;;5016212;28;20452;-70
2022/02/09 05:03:36;;;;;;;0.73;0.60;;;10.40;99.90;;;;;;5014252;28;20426;-70
2022/02/09 05:27:23;;;;;;;0.80;0.70;;;10.40;99.90;;;;;;4995221;28;20628;-70
2022/02/09 05:29:49;;;;;;;0.73;0.60;;;10.40;99.90;;;;;;4998653;28;20216;-71
2022/02/09 05:32:14;;;;;;;0.70;0.50;;;10.40;99.90;;;;;;5014214;28;20414;-71
2022/02/09 05:34:41;;;;;;;0.80;0.70;;;10.40;99.90;;;;;;5014171;28;21144;-71
2022/02/09 05:37:06;;;;;;;0.70;0.50;;;10.40;99.90;;;;;;5014634;28;20165;-71
2022/02/09 05:39:32;;;;;;;0.90;0.60;;;10.50;99.90;;;;;;5014048;28;20477;-71
2022/02/09 05:41:58;;;;;;;3.07;1.07;;;10.50;99.90;;;;;;5014697;28;20171;-71
2022/02/09 05:44:24;;;;;;;0.70;0.50;;;10.50;99.90;;;;;;5014134;28;20215;-71
2022/02/09 05:51:57;;;;;;;2.60;0.70;;;10.50;99.90;;;;;;5014322;28;20195;-71
2022/02/09 05:54:44;;;;;;;1.10;0.90;;;10.40;99.90;;;;;;4996795;28;20415;-71
2022/02/09 05:59:46;;;;;;;0.70;0.70;;;10.50;99.90;;;;;;5009941;28;20431;-71
2022/02/09 06:02:12;;;;;;;0.70;0.60;;;10.50;99.90;;;;;;5019217;28;20435;-71
2022/02/09 06:04:40;;;;;;;0.80;0.50;;;10.50;99.90;;;;;;5017781;28;20442;-70
2022/02/09 06:07:05;;;;;;;1.20;1.10;;;10.50;99.90;;;;;;5028473;28;20481;-70
2022/02/09 06:09:31;;;;;;;0.70;0.50;;;10.50;99.90;;;;;;5025300;28;20982;-70
2022/02/09 06:12:19;;;;;;;0.80;0.70;;;10.50;99.90;;;;;;5017344;28;20180;-71
2022/02/09 06:20:07;;;;;;;0.80;0.70;;;10.50;99.90;;;;;;5012830;28;20461;-71
2022/02/09 06:22:33;;;;;;;0.70;0.50;;;10.50;99.90;;;;;;5012034;28;20403;-71
2022/02/09 06:24:58;;;;;;;1.47;1.37;;;10.50;99.90;;;;;;5011706;28;20924;-71
2022/02/09 06:27:24;;;;;;;1.10;1.00;;;10.50;99.90;;;;;;5013615;28;20183;-71
2022/02/09 06:29:50;;;;;;;0.70;0.50;;;10.50;99.90;;;;;;5017240;28;20196;-71
2022/02/09 06:32:18;;;;;;;0.70;0.50;;;10.50;99.90;;;;;;4992805;28;20172;-71
2022/02/09 06:34:45;;;;;;;0.70;0.50;;;10.50;99.90;;;;;;4991691;28;20204;-71
2022/02/09 06:37:16;;;;;;;0.70;0.40;;;10.50;99.90;;;;;;4996925;28;20432;-71
2022/02/09 06:39:45;;;;;;;0.80;0.50;;;10.50;99.90;;;;;;5012599;28;20812;-70
2022/02/09 06:42:11;;;;;;;0.90;0.70;;;10.60;99.90;;;;;;5012317;28;20783;-70
2022/02/09 06:44:37;;;;;;;0.70;0.50;;;10.60;99.90;;;;;;5012133;28;20424;-70
2022/02/09 06:47:03;;;;;;;3.87;3.57;;;10.60;99.90;;;;;;5005878;28;20415;-70
2022/02/09 06:49:30;;;;;;;0.70;0.47;;;10.60;99.90;;;;;;4992833;28;20430;-70
2022/02/09 06:51:56;;;;;;;3.63;2.47;;;10.60;99.90;;;;;;4992616;28;20428;-70
2022/02/09 06:54:31;;;;;;;0.70;0.70;;;10.60;99.90;;;;;;4992725;28;21025;-70
2022/02/09 06:57:08;;;;;;;0.80;0.70;;;10.60;99.90;;;;;;5007984;28;20178;-70
2022/02/09 06:59:38;;;;;;;2.40;2.20;;;10.60;99.90;;;;;;5023531;28;20446;-71
2022/02/09 07:02:05;;;;;;;1.20;1.10;;;10.70;99.90;;;;;;5011819;28;20427;-71
2022/02/09 07:04:36;;;;;;;0.70;0.50;;;10.70;99.90;;;;;;4994405;28;20494;-70
2022/02/09 07:07:02;;;;;;;0.70;0.50;;;10.70;99.90;;;;;;5012116;28;20415;-70
2022/02/09 07:09:28;;;;;;;2.50;0.60;;;10.70;99.90;;;;;;5012202;28;20481;-70
2022/02/09 07:11:57;;;;;;;0.70;0.50;;;10.70;99.90;;;;;;5011965;28;21036;-70
2022/02/09 07:14:26;;;;;;;0.70;0.50;;;10.70;99.90;;;;;;5010364;28;20180;-70
2022/02/09 07:16:52;;;;;;;1.43;1.33;;;10.70;99.90;;;;;;4994473;28;20463;-70
2022/02/09 07:19:18;;;;;;;0.93;0.70;;;10.70;99.90;;;;;;5012050;28;20510;-70
2022/02/09 07:21:44;;;;;;;0.70;0.50;;;10.80;99.90;;;;;;5012923;28;20517;-70
2022/02/09 07:24:19;;;;;;;3.80;1.10;;;10.70;99.90;;;;;;5011993;28;20264;-71
2022/02/09 07:29:13;;;;;;;0.70;0.50;;;10.70;99.90;;;;;;5011807;28;20431;-70
2022/02/09 07:31:38;;;;;;;0.70;0.50;;;10.80;99.90;;;;;;5010474;28;20451;-70
2022/02/09 07:34:04;;;;;;;3.33;1.30;;;10.80;99.90;;;;;;5015634;28;20443;-70
2022/02/09 07:36:35;;;;;;;3.03;0.93;;;10.80;99.90;;;;;;5015924;28;20442;-70
2022/02/09 07:39:03;;;;;;;1.00;0.60;;;10.80;99.90;;;;;;5001387;28;20192;-70
2022/02/09 07:41:29;;;;;;;0.70;0.50;;;10.90;99.90;;;;;;5012998;28;20410;-70
2022/02/09 07:53:58;;;;;;;0.70;0.50;;;11.10;99.90;;;;;;5015609;28;20955;-70
2022/02/09 07:56:24;;;;;;;1.37;1.27;;;11.10;99.90;;;;;;5015152;28;20451;-70
2022/02/09 07:58:50;;;;;;;4.00;1.00;;;11.20;99.90;;;;;;5015571;28;20406;-70
2022/02/09 08:01:15;;;;;;;1.27;1.17;;;11.20;99.90;;;;;;5015271;28;20410;-70
2022/02/09 08:03:41;;;;;;;0.70;0.60;;;11.30;99.90;;;;;;5015202;28;20528;-70
2022/02/09 08:06:09;;;;;;;0.90;0.70;;;11.30;99.90;;;;;;5015327;28;20661;-71
2022/02/09 08:08:36;;;;;;;0.70;0.50;;;11.30;99.90;;;;;;5026259;28;20557;-70
2022/02/09 08:11:29;;;;;;;0.70;0.50;;;11.30;99.90;;;;;;5016850;28;20444;-70
2022/02/09 08:27:19;;;;;;;0.70;0.50;;;11.30;99.90;;;;;;5034780;28;20414;-71
2022/02/09 08:30:02;;;;;;;1.10;1.00;;;11.20;99.90;;;;;;5024327;28;20192;-71
2022/02/09 08:34:54;;;;;;;0.70;0.50;;;11.20;99.90;;;;;;5023867;28;20464;-71
2022/02/09 08:37:19;;;;;;;0.80;0.60;;;11.20;99.90;;;;;;5031634;28;20436;-71
2022/02/09 08:39:45;;;;;;;1.17;0.73;;;11.20;99.90;;;;;;5023803;28;20270;-71
2022/02/09 08:42:10;;;;;;;0.70;0.50;;;11.30;99.90;;;;;;5028524;28;20182;-71
2022/02/09 08:44:36;;;;;;;0.70;0.50;;;11.30;99.90;;;;;;5032282;28;20180;-71
2022/02/09 08:47:02;;;;;;;0.70;0.50;;;11.40;99.90;;;;;;4999886;28;20173;-71
2022/02/09 08:49:29;;;;;;;0.80;0.80;;;11.40;99.90;;;;;;5026932;28;20205;-72
2022/02/09 08:51:56;;;;;;;1.00;0.73;;;11.40;99.90;;;;;;5034191;28;20436;-71
2022/02/09 08:54:22;;;;;;;2.30;0.90;;;11.40;99.90;;;;;;5020291;28;20410;-71
2022/02/09 08:56:48;;;;;;;0.70;0.60;;;11.40;99.90;;;;;;5015414;28;20807;-71
2022/02/09 08:59:13;;;;;;;1.00;0.67;;;11.50;99.90;;;;;;5015694;28;20742;-71
2022/02/09 09:01:46;;;;;;;0.70;0.50;;;11.50;99.90;;;;;;5007779;28;20259;-71
2022/02/09 09:04:24;;;;;;;0.80;0.77;;;11.40;99.90;;;;;;4999162;28;20192;-71
2022/02/09 09:06:55;;;;;;;0.70;0.50;;;11.40;99.90;;;;;;5011230;28;20415;-71
2022/02/09 09:14:59;;;;;;;0.70;0.60;;;11.30;99.90;;;;;;5016244;28;20935;-71
2022/02/09 09:17:56;;;;;;;0.87;0.87;;;11.30;99.90;;;;;;5034791;28;20461;-71
2022/02/09 10:34:24;;;;;;;0.87;0.67;;;11.40;99.90;;;;;;5032779;28;20463;-71
2022/02/09 10:37:01;;;;;;;0.90;0.80;;;11.40;99.90;;;;;;5024030;28;20445;-71
2022/02/09 10:39:58;;;;;;;1.47;1.27;;;11.40;99.90;;;;;;5012675;28;20810;-71
2022/02/09 10:42:37;;;;;;;2.13;1.23;;;11.50;99.90;;;;;;5012481;28;20414;-71
2022/02/09 10:45:08;;;;;;;1.43;0.93;;;11.50;99.90;;;;;;4995786;28;20765;-71
2022/02/09 10:47:34;;;;;;;0.70;0.60;;;11.60;99.90;;;;;;5013576;28;20802;-71
2022/02/09 10:50:25;;;;;;;0.90;0.67;;;11.70;99.90;;;;;;5013174;28;20442;-71
2022/02/09 10:52:51;;;;;;;0.70;0.50;;;11.70;99.90;;;;;;5010259;28;20520;-71
2022/02/09 10:55:38;;;;;;;0.80;0.63;;;11.90;99.90;;;;;;5012191;28;20446;-71
2022/02/09 10:58:10;;;;;;;1.37;1.27;;;12.00;99.90;;;;;;5012422;28;20403;-71
2022/02/09 11:00:36;;;;;;;0.70;0.60;;;12.10;99.90;;;;;;5012297;28;20445;-71
2022/02/09 11:03:01;;;;;;;0.80;0.60;;;12.20;99.90;;;;;;5015811;28;20423;-71
2022/02/09 11:05:28;;;;;;;0.80;0.67;;;12.20;99.90;;;;;;5012391;28;20172;-71
2022/02/09 11:07:54;;;;;;;1.37;1.27;;;12.30;99.90;;;;;;5011575;28;20172;-71
2022/02/09 11:10:22;;;;;;;0.83;0.77;;;12.40;99.90;;;;;;5012174;28;20434;-71
2022/02/09 11:12:47;;;;;;;0.70;0.50;;;12.40;99.90;;;;;;5012007;28;20435;-71
2022/02/09 11:15:18;;;;;;;1.10;0.70;;;12.40;99.90;;;;;;5012044;28;20486;-71
2022/02/09 11:17:47;;;;;;;1.33;1.23;;;12.40;99.90;;;;;;5011781;28;20418;-71
2022/02/09 11:20:20;;;;;;;2.40;1.03;;;12.40;99.90;;;;;;4978414;28;20506;-71
2022/02/09 11:22:46;;;;;;;1.90;1.80;;;12.40;99.90;;;;;;5021369;28;20422;-71
2022/02/09 11:25:27;;;;;;;0.70;0.50;;;12.40;99.90;;;;;;5008969;28;20466;-71
2022/02/09 11:28:19;;;;;;;0.80;0.60;;;12.50;99.90;;;;;;5008326;28;20439;-71
2022/02/09 11:31:07;;;;;;;0.70;0.50;;;12.60;99.90;;;;;;5014512;28;20453;-71
2022/02/09 11:33:59;;;;;;;0.70;0.50;;;12.70;99.90;;;;;;5032626;28;20808;-72
2022/02/09 11:38:55;;;;;;;0.80;0.50;;;12.70;99.90;;;;;;4993145;28;20401;-70
2022/02/09 11:41:27;;;;;;;0.70;0.50;;;12.80;99.90;;;;;;4993232;28;20192;-70
2022/02/09 11:44:03;;;;;;;1.27;1.17;;;12.80;99.90;;;;;;5011798;28;20850;-70
2022/02/09 11:46:59;;;;;;;0.73;0.50;;;12.90;99.90;;;;;;5011859;28;20395;-71
2022/02/09 11:50:07;;;;;;;0.80;0.60;;;12.90;99.90;;;;;;5019089;28;20454;-71
2022/02/09 12:00:06;;;;;;;1.33;1.23;;;13.00;99.90;;;;;;5022612;28;20468;-70
2022/02/09 12:11:14;;;;;;;0.80;0.60;;;13.10;99.90;;;;;;5021304;28;20488;-70
2022/02/09 12:14:32;;;;;;;0.70;0.50;;;13.20;99.90;;;;;;4998462;28;20429;-71
2022/02/09 12:17:13;;;;;;;3.90;0.80;;;13.30;99.90;;;;;;5005647;28;20457;-71
2022/02/09 12:19:47;;;;;;;0.70;0.60;;;13.50;99.90;;;;;;5023132;28;20495;-71
2022/02/09 12:22:22;;;;;;;0.80;0.70;;;13.60;99.90;;;;;;5027427;28;20398;-71
2022/02/09 12:24:55;;;;;;;1.53;0.90;;;13.80;99.90;;;;;;5015719;28;20423;-71
2022/02/09 12:27:21;;;;;;;0.80;0.60;;;13.80;99.90;;;;;;5023649;28;20437;-71
2022/02/09 12:29:56;;;;;;;0.80;0.80;;;13.80;99.90;;;;;;5028143;28;20454;-70
2022/02/09 12:32:24;;;;;;;1.07;0.67;;;13.80;99.90;;;;;;5030777;28;20405;-71
2022/02/09 12:35:00;;;;;;;0.70;0.50;;;13.70;99.90;;;;;;5028254;28;20503;-70
2022/02/09 12:37:32;;;;;;;2.83;0.67;;;13.60;99.90;;;;;;5014579;28;20423;-71
2022/02/09 12:39:58;;;;;;;0.70;0.50;;;13.50;99.90;;;;;;5014723;28;20502;-70
2022/02/09 12:42:30;;;;;;;3.30;1.17;;;13.50;99.90;;;;;;5014430;28;20769;-71
2022/02/09 12:44:59;;;;;;;0.70;0.50;;;13.40;99.90;;;;;;5000448;28;20428;-70
2022/02/09 12:47:33;;;;;;;0.70;0.50;;;13.30;99.90;;;;;;4994583;28;20420;-71
2022/02/09 12:50:02;;;;;;;0.87;0.67;;;13.30;99.90;;;;;;5013892;28;20446;-71
2022/02/09 12:52:29;;;;;;;0.70;0.60;;;13.20;99.90;;;;;;5021017;28;20466;-71
2022/02/09 12:55:07;;;;;;;1.00;0.90;;;13.30;99.90;;;;;;5034114;28;20449;-70
2022/02/09 12:57:39;;;;;;;0.70;0.50;;;13.30;99.90;;;;;;5023532;28;21044;-71
2022/02/09 13:00:09;;;;;;;1.10;0.97;;;13.30;99.90;;;;;;5001029;28;20450;-71
2022/02/09 13:02:42;;;;;;;1.27;0.83;;;13.30;99.90;;;;;;5025578;28;20441;-70
2022/02/09 13:05:08;;;;;;;0.70;0.50;;;13.30;99.90;;;;;;5020105;28;20436;-70
2022/02/09 13:07:33;;;;;;;0.80;0.77;;;13.40;99.90;;;;;;5012610;28;20421;-70
2022/02/09 13:09:59;;;;;;;1.20;1.10;;;13.40;99.90;;;;;;5028445;28;20572;-71
2022/02/09 13:12:30;;;;;;;0.90;0.80;;;13.50;99.90;;;;;;5021414;28;20238;-71
2022/02/09 13:15:08;;;;;;;0.90;0.80;;;13.50;99.90;;;;;;5021235;28;20869;-71
2022/02/09 13:23:40;;;;;;;0.70;0.60;;;13.70;99.90;;;;;;5026281;28;20448;-70
2022/02/09 14:03:50;;;;;;;0.70;0.50;;;14.40;99.90;;;;;;5012849;28;20435;-71
2022/02/09 14:11:50;;;;;;;0.80;0.60;;;14.80;99.90;;;;;;5034106;28;20417;-71
2022/02/09 15:02:08;;;;;;;1.20;0.70;;;23.10;85.50;;;;;;5004149;28;20427;-71
2022/02/09 15:05:10;;;;;;;1.17;1.07;;;23.10;80.60;;;;;;5011732;28;20958;-71
2022/02/09 15:10:17;;;;;;;1.00;0.90;;;23.10;78.30;;;;;;5017741;28;20459;-69
2022/02/09 15:15:31;;;;;;;0.90;0.60;;;23.80;73.20;;;;;;5011937;28;20552;-71
2022/02/09 15:23:23;;;;;;;0.90;0.73;;;23.70;70.90;;;;;;5011736;28;20435;-71
2022/02/09 15:25:48;;;;;;;1.20;0.70;;;24.00;69.30;;;;;;5011563;28;20455;-71
2022/02/09 15:28:14;;;;;;;1.10;0.80;;;24.00;68.80;;;;;;5011630;28;20529;-71
2022/02/09 15:30:49;;;;;;;1.23;1.13;;;24.20;68.00;;;;;;5008052;28;20201;-71
2022/02/09 15:33:21;;;;;;;2.87;1.53;;;24.30;67.30;;;;;;5011201;28;20171;-72
2022/02/09 15:35:50;;;;;;;0.80;0.60;;;24.40;67.20;;;;;;4993948;28;20794;-72
2022/02/09 15:38:22;;;;;;;0.90;0.70;;;24.20;65.30;;;;;;5011391;28;20465;-71
2022/02/09 15:41:14;;;;;;;0.90;0.60;;;23.90;65.30;;;;;;5011467;28;20434;-71
2022/02/09 15:56:12;;;;;;;1.00;0.77;;;23.80;65.90;;;;;;4993662;28;20431;-69
2022/02/09 16:19:47;;;;;;;0.73;0.60;;;19.30;76.00;;;;;;5012316;28;20533;-70
2022/02/09 16:22:32;;;;;;;2.67;0.80;;;18.60;78.60;;;;;;5008043;28;20465;-70
2022/02/09 16:33:14;;;;;;;1.23;0.70;;;15.50;95.50;;;;;;5014345;28;20458;-70
2022/02/09 16:44:19;;;;;;;0.80;0.67;;;13.60;99.90;;;;;;5014448;28;20426;-70
2022/02/09 16:46:52;;;;;;;0.80;0.70;;;13.20;99.90;;;;;;5014428;28;20438;-70
2022/02/09 16:49:32;;;;;;;1.47;1.37;;;12.90;99.90;;;;;;5014211;28;21031;-70
2022/02/09 16:52:03;;;;;;;0.70;0.50;;;12.50;99.90;;;;;;5014035;28;20522;-70
2022/02/09 17:21:07;;;;;;;0.80;0.70;;;10.30;99.90;;;;;;5013875;28;20487;-70
2022/02/09 17:23:32;;;;;;;0.70;0.50;;;10.20;99.90;;;;;;5013569;28;20823;-70
2022/02/09 17:25:58;;;;;;;0.70;0.60;;;10.10;99.90;;;;;;5013017;28;20184;-70
2022/02/09 17:28:23;;;;;;;0.70;0.50;;;10.00;99.90;;;;;;5013640;28;20223;-70
2022/02/09 17:34:18;;;;;;;0.70;0.50;;;9.80;99.90;;;;;;4958541;28;20234;-70
2022/02/09 17:58:02;;;;;;;0.70;0.50;;;8.80;99.90;;;;;;5014646;28;20435;-71
2022/02/09 18:00:29;;;;;;;0.80;0.80;;;8.70;99.90;;;;;;4996772;28;20489;-71
2022/02/09 18:02:55;;;;;;;0.70;0.60;;;8.60;99.90;;;;;;4995880;28;20722;-71
2022/02/09 18:07:53;;;;;;;0.80;0.60;;;8.50;99.90;;;;;;5014361;28;20435;-72
2022/02/09 18:15:56;;;;;;;0.70;0.50;;;8.20;99.90;;;;;;5013033;28;20450;-70
2022/02/09 18:31:56;;;;;;;0.70;0.50;;;7.80;99.90;;;;;;5012436;28;20427;-70
2022/02/09 18:45:30;;;;;;;0.70;0.50;;;7.50;99.90;;;;;;5002070;28;20423;-70
2022/02/09 19:02:19;;;;;;;1.07;0.90;;;7.50;99.90;;;;;;5014525;28;20418;-71
2022/02/09 19:07:10;;;;;;;0.70;0.50;;;7.50;99.90;;;;;;5019816;28;20443;-71
2022/02/09 19:15:39;;;;;;;0.70;0.50;;;7.40;99.90;;;;;;5012805;28;20561;-71
2022/02/09 19:26:32;;;;;;;0.70;0.50;;;7.30;99.90;;;;;;5012476;28;20591;-71
2022/02/09 19:31:49;;;;;;;0.80;0.63;;;7.20;99.90;;;;;;5015941;28;20433;-71
2022/02/09 19:43:32;;;;;;;0.70;0.50;;;7.00;99.90;;;;;;5015688;28;20442;-71
2022/02/09 19:50:31;;;;;;;1.13;1.03;;;6.80;99.90;;;;;;5015924;28;20828;-71
2022/02/09 19:55:34;;;;;;;0.70;0.50;;;6.70;99.90;;;;;;5016367;28;20462;-71
2022/02/09 19:58:01;;;;;;;0.70;0.50;;;6.60;99.90;;;;;;5015507;28;20172;-71
2022/02/09 20:00:29;;;;;;;0.80;0.80;;;6.60;99.90;;;;;;5015958;28;20438;-71
2022/02/09 20:02:55;;;;;;;0.70;0.50;;;6.60;99.90;;;;;;5015268;28;20815;-71
2022/02/09 20:05:22;;;;;;;0.70;0.50;;;6.50;99.90;;;;;;5014048;28;20431;-70
2022/02/09 20:07:48;;;;;;;0.80;0.70;;;6.60;99.90;;;;;;5015155;28;20180;-70
2022/02/09 20:10:14;;;;;;;0.70;0.50;;;6.70;99.90;;;;;;5014962;28;20534;-70
2022/02/09 20:12:40;;;;;;;0.80;0.80;;;6.70;99.90;;;;;;5014310;28;20172;-71
2022/02/09 20:15:11;;;;;;;0.70;0.60;;;6.80;99.90;;;;;;5014756;28;20239;-71
2022/02/09 20:17:41;;;;;;;1.43;1.23;;;6.90;99.90;;;;;;5014922;28;20426;-71
2022/02/09 20:20:10;;;;;;;0.70;0.40;;;7.10;99.90;;;;;;5014598;28;20866;-71
2022/02/09 20:22:35;;;;;;;2.27;0.83;;;7.20;99.90;;;;;;5014804;28;20514;-71
2022/02/09 20:25:02;;;;;;;0.70;0.70;;;7.20;99.90;;;;;;5014956;28;20521;-71
2022/02/09 20:27:29;;;;;;;2.27;2.17;;;7.30;99.90;;;;;;4997681;28;20168;-71
2022/02/09 20:29:55;;;;;;;0.70;0.50;;;7.40;99.90;;;;;;5014904;28;20501;-71
2022/02/09 20:32:34;;;;;;;0.70;0.60;;;7.50;99.90;;;;;;5014622;28;20427;-71
2022/02/09 20:35:03;;;;;;;0.70;0.50;;;7.60;99.90;;;;;;5014538;28;20230;-70
2022/02/09 20:37:30;;;;;;;0.70;0.50;;;7.70;99.90;;;;;;5014339;28;20420;-70
2022/02/09 20:42:22;;;;;;;0.80;0.80;;;7.80;99.90;;;;;;5014075;28;20435;-70
2022/02/09 20:45:04;;;;;;;0.70;0.50;;;7.90;99.90;;;;;;5014343;28;20172;-70
2022/02/09 20:47:31;;;;;;;1.57;1.00;;;7.90;99.90;;;;;;5014399;28;20819;-69
2022/02/09 20:49:57;;;;;;;0.70;0.47;;;8.00;99.90;;;;;;5014027;28;20447;-70
2022/02/09 20:52:22;;;;;;;0.80;0.70;;;8.00;99.90;;;;;;5014223;28;20425;-70
2022/02/09 20:54:48;;;;;;;0.70;0.50;;;8.10;99.90;;;;;;5013968;28;20169;-70
2022/02/09 20:57:13;;;;;;;0.70;0.50;;;8.10;99.90;;;;;;5013959;28;20200;-70
2022/02/09 20:59:45;;;;;;;0.70;0.50;;;8.20;99.90;;;;;;5014159;28;20251;-71
2022/02/09 21:02:33;;;;;;;0.70;0.50;;;8.20;99.90;;;;;;5013968;28;20176;-71
2022/02/09 21:05:19;;;;;;;0.87;0.60;;;8.30;99.90;;;;;;4996062;28;20481;-70
2022/02/09 21:07:53;;;;;;;1.83;0.70;;;8.40;99.90;;;;;;5013489;28;20445;-70
2022/02/09 21:10:38;;;;;;;1.60;1.50;;;8.50;99.90;;;;;;5014194;28;20434;-71
2022/02/09 21:13:11;;;;;;;0.70;0.50;;;8.50;99.90;;;;;;5013550;28;20549;-71
2022/02/09 21:21:14;;;;;;;2.87;1.23;;;8.60;99.90;;;;;;5013564;28;20443;-70
2022/02/09 21:49:19;;;;;;;1.63;1.10;;;8.00;99.90;;;;;;5013057;28;20176;-71
2022/02/09 21:54:58;;;;;;;2.73;2.53;;;7.80;99.90;;;;;;5013098;28;20426;-71
2022/02/09 21:57:39;;;;;;;0.70;0.50;;;7.60;99.90;;;;;;5013513;28;20433;-71
2022/02/09 22:45:40;;;;;;;1.57;0.80;;;6.70;99.90;;;;;;5012054;28;20403;-71
2022/02/09 22:50:44;;;;;;;1.10;1.00;;;6.60;99.90;;;;;;5011824;28;20478;-71
2022/02/09 22:55:54;;;;;;;0.90;0.73;;;6.50;99.90;;;;;;5012671;28;20465;-71
2022/02/09 22:58:20;;;;;;;1.53;1.43;;;6.50;99.90;;;;;;5012117;28;20419;-70
2022/02/09 23:03:31;;;;;;;0.77;0.67;;;6.40;99.90;;;;;;5011063;28;21192;-70
2022/02/09 23:06:11;;;;;;;0.97;0.97;;;6.40;99.90;;;;;;5011893;28;20423;-70
2022/02/09 23:57:21;;;;;;;0.80;0.70;;;5.70;99.90;;;;;;5011688;28;20457;-70
